sensor_id;sensor_type;location;lat;lon;timestamp;P1;durP1;ratioP1;P2;durP2;ratioP2
63050;SDS011;49136;47.416;19.402;2023-08-06T00:01:48;687.67;;;622.90;;
63050;SDS011;49136;47.416;19.402;2023-08-06T00:04:14;706.17;;;639.45;;
63050;SDS011;49136;47.416;19.402;2023-08-06T00:06:39;704.15;;;635.88;;
63050;SDS011;49136;47.416;19.402;2023-08-06T00:09:05;724.42;;;654.80;;
63050;SDS011;49136;47.416;19.402;2023-08-06T00:11:30;691.50;;;625.00;;
63050;SDS011;49136;47.416;19.402;2023-08-06T00:13:56;693.28;;;627.03;;
63050;SDS011;49136;47.416;19.402;2023-08-06T00:16:21;721.22;;;650.35;;
63050;SDS011;49136;47.416;19.402;2023-08-06T00:18:47;732.10;;;661.75;;
63050;SDS011;49136;47.416;19.402;2023-08-06T00:21:12;716.33;;;648.45;;
63050;SDS011;49136;47.416;19.402;2023-08-06T00:23:38;726.08;;;655.90;;
63050;SDS011;49136;47.416;19.402;2023-08-06T00:26:04;712.15;;;645.08;;
63050;SDS011;49136;47.416;19.402;2023-08-06T00:28:31;722.30;;;654.17;;
63050;SDS011;49136;47.416;19.402;2023-08-06T00:30:57;693.33;;;627.22;;
63050;SDS011;49136;47.416;19.402;2023-08-06T00:33:23;690.50;;;626.47;;
63050;SDS011;49136;47.416;19.402;2023-08-06T00:35:49;762.90;;;687.58;;
63050;SDS011;49136;47.416;19.402;2023-08-06T00:38:14;741.63;;;670.08;;
63050;SDS011;49136;47.416;19.402;2023-08-06T00:40:39;705.90;;;639.38;;
63050;SDS011;49136;47.416;19.402;2023-08-06T00:43:06;690.38;;;625.95;;
63050;SDS011;49136;47.416;19.402;2023-08-06T00:45:33;680.60;;;616.13;;
63050;SDS011;49136;47.416;19.402;2023-08-06T00:48:00;695.33;;;630.22;;
63050;SDS011;49136;47.416;19.402;2023-08-06T00:50:27;679.33;;;615.00;;
63050;SDS011;49136;47.416;19.402;2023-08-06T00:52:53;681.97;;;618.90;;
63050;SDS011;49136;47.416;19.402;2023-08-06T00:55:19;702.33;;;636.35;;
63050;SDS011;49136;47.416;19.402;2023-08-06T00:57:44;706.53;;;641.20;;
63050;SDS011;49136;47.416;19.402;2023-08-06T01:00:10;702.92;;;636.88;;
63050;SDS011;49136;47.416;19.402;2023-08-06T01:02:36;691.70;;;626.80;;
63050;SDS011;49136;47.416;19.402;2023-08-06T01:05:02;713.22;;;645.53;;
63050;SDS011;49136;47.416;19.402;2023-08-06T01:10:10;689.78;;;626.20;;
63050;SDS011;49136;47.416;19.402;2023-08-06T01:13:16;709.60;;;642.53;;
63050;SDS011;49136;47.416;19.402;2023-08-06T01:15:55;705.10;;;638.83;;
63050;SDS011;49136;47.416;19.402;2023-08-06T01:18:25;727.92;;;658.05;;
63050;SDS011;49136;47.416;19.402;2023-08-06T01:20:51;733.38;;;662.25;;
63050;SDS011;49136;47.416;19.402;2023-08-06T01:23:17;725.25;;;655.28;;
63050;SDS011;49136;47.416;19.402;2023-08-06T01:25:46;722.42;;;651.40;;
63050;SDS011;49136;47.416;19.402;2023-08-06T01:28:40;696.47;;;629.60;;
63050;SDS011;49136;47.416;19.402;2023-08-06T01:31:24;723.17;;;653.83;;
63050;SDS011;49136;47.416;19.402;2023-08-06T01:33:52;717.25;;;649.42;;
63050;SDS011;49136;47.416;19.402;2023-08-06T01:36:19;687.63;;;621.78;;
63050;SDS011;49136;47.416;19.402;2023-08-06T01:38:46;694.67;;;628.33;;
63050;SDS011;49136;47.416;19.402;2023-08-06T01:41:11;716.15;;;645.00;;
63050;SDS011;49136;47.416;19.402;2023-08-06T01:43:37;730.78;;;656.95;;
63050;SDS011;49136;47.416;19.402;2023-08-06T01:46:02;705.17;;;634.67;;
63050;SDS011;49136;47.416;19.402;2023-08-06T01:48:27;747.67;;;672.22;;
63050;SDS011;49136;47.416;19.402;2023-08-06T01:50:54;727.42;;;654.33;;
63050;SDS011;49136;47.416;19.402;2023-08-06T01:53:20;724.88;;;652.90;;
63050;SDS011;49136;47.416;19.402;2023-08-06T01:55:48;719.88;;;648.65;;
63050;SDS011;49136;47.416;19.402;2023-08-06T01:58:14;715.78;;;646.90;;
63050;SDS011;49136;47.416;19.402;2023-08-06T02:00:40;713.95;;;645.30;;
63050;SDS011;49136;47.416;19.402;2023-08-06T02:03:05;696.45;;;629.00;;
63050;SDS011;49136;47.416;19.402;2023-08-06T02:05:31;713.08;;;642.90;;
63050;SDS011;49136;47.416;19.402;2023-08-06T02:07:56;689.08;;;621.90;;
63050;SDS011;49136;47.416;19.402;2023-08-06T02:10:22;682.17;;;615.80;;
63050;SDS011;49136;47.416;19.402;2023-08-06T02:12:47;714.08;;;643.88;;
63050;SDS011;49136;47.416;19.402;2023-08-06T02:15:13;715.38;;;645.97;;
63050;SDS011;49136;47.416;19.402;2023-08-06T02:17:40;711.40;;;641.90;;
63050;SDS011;49136;47.416;19.402;2023-08-06T02:20:05;693.40;;;626.45;;
63050;SDS011;49136;47.416;19.402;2023-08-06T02:22:31;680.55;;;615.60;;
63050;SDS011;49136;47.416;19.402;2023-08-06T02:24:57;704.38;;;636.05;;
63050;SDS011;49136;47.416;19.402;2023-08-06T02:27:22;660.28;;;596.60;;
63050;SDS011;49136;47.416;19.402;2023-08-06T02:29:47;674.00;;;609.88;;
63050;SDS011;49136;47.416;19.402;2023-08-06T02:32:13;683.85;;;619.72;;
63050;SDS011;49136;47.416;19.402;2023-08-06T02:34:38;666.15;;;605.10;;
63050;SDS011;49136;47.416;19.402;2023-08-06T02:37:04;690.83;;;626.05;;
63050;SDS011;49136;47.416;19.402;2023-08-06T02:39:29;701.20;;;634.90;;
63050;SDS011;49136;47.416;19.402;2023-08-06T02:41:55;716.83;;;648.47;;
63050;SDS011;49136;47.416;19.402;2023-08-06T02:44:20;687.72;;;622.50;;
63050;SDS011;49136;47.416;19.402;2023-08-06T02:46:45;678.42;;;613.80;;
63050;SDS011;49136;47.416;19.402;2023-08-06T02:49:11;667.83;;;606.08;;
63050;SDS011;49136;47.416;19.402;2023-08-06T02:51:36;695.55;;;630.35;;
63050;SDS011;49136;47.416;19.402;2023-08-06T02:54:02;684.13;;;621.75;;
63050;SDS011;49136;47.416;19.402;2023-08-06T02:56:27;677.63;;;615.55;;
63050;SDS011;49136;47.416;19.402;2023-08-06T02:58:53;685.90;;;622.78;;
63050;SDS011;49136;47.416;19.402;2023-08-06T03:01:18;670.35;;;608.92;;
63050;SDS011;49136;47.416;19.402;2023-08-06T03:03:44;671.25;;;610.25;;
63050;SDS011;49136;47.416;19.402;2023-08-06T03:06:10;666.88;;;606.72;;
63050;SDS011;49136;47.416;19.402;2023-08-06T03:08:35;675.42;;;615.00;;
63050;SDS011;49136;47.416;19.402;2023-08-06T03:11:02;689.72;;;627.45;;
63050;SDS011;49136;47.416;19.402;2023-08-06T03:13:27;683.00;;;620.78;;
63050;SDS011;49136;47.416;19.402;2023-08-06T03:15:57;679.25;;;617.92;;
63050;SDS011;49136;47.416;19.402;2023-08-06T03:20:51;657.13;;;598.20;;
63050;SDS011;49136;47.416;19.402;2023-08-06T03:23:16;666.55;;;606.17;;
63050;SDS011;49136;47.416;19.402;2023-08-06T03:25:42;651.60;;;592.88;;
63050;SDS011;49136;47.416;19.402;2023-08-06T03:28:07;686.05;;;624.70;;
63050;SDS011;49136;47.416;19.402;2023-08-06T03:30:33;683.20;;;620.22;;
63050;SDS011;49136;47.416;19.402;2023-08-06T03:32:58;669.63;;;608.60;;
63050;SDS011;49136;47.416;19.402;2023-08-06T03:35:24;695.45;;;631.65;;
63050;SDS011;49136;47.416;19.402;2023-08-06T03:37:49;699.33;;;635.15;;
63050;SDS011;49136;47.416;19.402;2023-08-06T03:40:15;705.53;;;639.97;;
63050;SDS011;49136;47.416;19.402;2023-08-06T03:42:40;737.90;;;668.40;;
63050;SDS011;49136;47.416;19.402;2023-08-06T03:45:06;756.60;;;683.30;;
63050;SDS011;49136;47.416;19.402;2023-08-06T04:00:18;826.90;;;739.03;;
63050;SDS011;49136;47.416;19.402;2023-08-06T04:02:43;840.20;;;751.65;;
63050;SDS011;49136;47.416;19.402;2023-08-06T04:05:09;818.22;;;735.45;;
63050;SDS011;49136;47.416;19.402;2023-08-06T04:07:34;829.33;;;743.78;;
63050;SDS011;49136;47.416;19.402;2023-08-06T04:10:00;822.70;;;736.60;;
63050;SDS011;49136;47.416;19.402;2023-08-06T04:12:27;814.75;;;731.85;;
63050;SDS011;49136;47.416;19.402;2023-08-06T04:14:53;829.05;;;745.03;;
63050;SDS011;49136;47.416;19.402;2023-08-06T04:17:19;835.03;;;749.33;;
63050;SDS011;49136;47.416;19.402;2023-08-06T04:19:50;810.03;;;729.17;;
63050;SDS011;49136;47.416;19.402;2023-08-06T04:22:17;771.70;;;697.00;;
63050;SDS011;49136;47.416;19.402;2023-08-06T04:24:43;855.92;;;764.47;;
63050;SDS011;49136;47.416;19.402;2023-08-06T04:27:09;864.33;;;772.88;;
63050;SDS011;49136;47.416;19.402;2023-08-06T04:29:35;781.88;;;705.05;;
63050;SDS011;49136;47.416;19.402;2023-08-06T04:32:01;759.90;;;687.30;;
63050;SDS011;49136;47.416;19.402;2023-08-06T04:34:27;724.83;;;655.85;;
63050;SDS011;49136;47.416;19.402;2023-08-06T04:36:52;710.40;;;642.95;;
63050;SDS011;49136;47.416;19.402;2023-08-06T04:39:17;683.60;;;618.25;;
63050;SDS011;49136;47.416;19.402;2023-08-06T04:41:43;693.17;;;628.47;;
63050;SDS011;49136;47.416;19.402;2023-08-06T04:44:09;751.45;;;677.30;;
63050;SDS011;49136;47.416;19.402;2023-08-06T04:46:34;720.08;;;652.28;;
63050;SDS011;49136;47.416;19.402;2023-08-06T04:49:00;690.47;;;624.08;;
63050;SDS011;49136;47.416;19.402;2023-08-06T04:51:25;729.72;;;659.55;;
63050;SDS011;49136;47.416;19.402;2023-08-06T04:53:50;711.38;;;643.33;;
63050;SDS011;49136;47.416;19.402;2023-08-06T04:56:16;708.72;;;640.72;;
63050;SDS011;49136;47.416;19.402;2023-08-06T04:58:41;725.05;;;655.53;;
63050;SDS011;49136;47.416;19.402;2023-08-06T05:01:07;684.53;;;620.75;;
63050;SDS011;49136;47.416;19.402;2023-08-06T05:03:32;714.65;;;648.70;;
63050;SDS011;49136;47.416;19.402;2023-08-06T05:05:57;743.92;;;674.15;;
63050;SDS011;49136;47.416;19.402;2023-08-06T05:08:23;701.42;;;637.92;;
63050;SDS011;49136;47.416;19.402;2023-08-06T05:10:48;698.53;;;636.55;;
63050;SDS011;49136;47.416;19.402;2023-08-06T05:13:14;714.70;;;651.05;;
63050;SDS011;49136;47.416;19.402;2023-08-06T05:15:39;758.83;;;689.97;;
63050;SDS011;49136;47.416;19.402;2023-08-06T05:18:07;730.65;;;665.25;;
63050;SDS011;49136;47.416;19.402;2023-08-06T05:20:35;729.85;;;663.78;;
63050;SDS011;49136;47.416;19.402;2023-08-06T05:23:02;716.88;;;653.33;;
63050;SDS011;49136;47.416;19.402;2023-08-06T05:25:28;701.30;;;639.42;;
63050;SDS011;49136;47.416;19.402;2023-08-06T05:27:53;733.00;;;667.17;;
63050;SDS011;49136;47.416;19.402;2023-08-06T05:30:18;803.50;;;724.58;;
63050;SDS011;49136;47.416;19.402;2023-08-06T05:32:44;787.63;;;714.17;;
63050;SDS011;49136;47.416;19.402;2023-08-06T05:35:09;734.80;;;668.22;;
63050;SDS011;49136;47.416;19.402;2023-08-06T05:37:35;838.25;;;748.47;;
63050;SDS011;49136;47.416;19.402;2023-08-06T05:40:00;707.00;;;644.88;;
63050;SDS011;49136;47.416;19.402;2023-08-06T05:42:26;756.63;;;684.88;;
63050;SDS011;49136;47.416;19.402;2023-08-06T05:44:52;730.17;;;664.70;;
63050;SDS011;49136;47.416;19.402;2023-08-06T05:47:17;723.20;;;660.05;;
63050;SDS011;49136;47.416;19.402;2023-08-06T05:49:44;757.03;;;688.42;;
63050;SDS011;49136;47.416;19.402;2023-08-06T05:52:10;701.38;;;638.28;;
63050;SDS011;49136;47.416;19.402;2023-08-06T05:54:35;720.83;;;656.80;;
63050;SDS011;49136;47.416;19.402;2023-08-06T05:57:01;707.95;;;645.08;;
63050;SDS011;49136;47.416;19.402;2023-08-06T05:59:26;700.60;;;640.03;;
63050;SDS011;49136;47.416;19.402;2023-08-06T06:01:52;698.17;;;636.33;;
63050;SDS011;49136;47.416;19.402;2023-08-06T06:04:17;693.65;;;632.85;;
63050;SDS011;49136;47.416;19.402;2023-08-06T06:06:42;762.75;;;693.58;;
63050;SDS011;49136;47.416;19.402;2023-08-06T06:09:08;716.25;;;653.63;;
63050;SDS011;49136;47.416;19.402;2023-08-06T06:11:33;697.95;;;637.55;;
63050;SDS011;49136;47.416;19.402;2023-08-06T06:13:59;693.70;;;632.33;;
63050;SDS011;49136;47.416;19.402;2023-08-06T06:16:24;722.10;;;659.08;;
63050;SDS011;49136;47.416;19.402;2023-08-06T06:18:50;687.90;;;628.58;;
63050;SDS011;49136;47.416;19.402;2023-08-06T06:21:15;692.28;;;631.75;;
63050;SDS011;49136;47.416;19.402;2023-08-06T06:23:40;712.83;;;650.33;;
63050;SDS011;49136;47.416;19.402;2023-08-06T06:26:06;704.55;;;641.80;;
63050;SDS011;49136;47.416;19.402;2023-08-06T06:28:31;704.63;;;643.33;;
63050;SDS011;49136;47.416;19.402;2023-08-06T06:31:00;732.05;;;665.55;;
63050;SDS011;49136;47.416;19.402;2023-08-06T06:33:26;770.70;;;699.42;;
63050;SDS011;49136;47.416;19.402;2023-08-06T06:35:53;734.72;;;668.95;;
63050;SDS011;49136;47.416;19.402;2023-08-06T06:38:18;743.90;;;678.05;;
63050;SDS011;49136;47.416;19.402;2023-08-06T06:40:44;768.38;;;698.10;;
63050;SDS011;49136;47.416;19.402;2023-08-06T06:43:09;726.38;;;661.22;;
63050;SDS011;49136;47.416;19.402;2023-08-06T06:45:34;724.60;;;658.78;;
63050;SDS011;49136;47.416;19.402;2023-08-06T06:48:00;734.88;;;669.88;;
63050;SDS011;49136;47.416;19.402;2023-08-06T06:50:25;700.28;;;639.00;;
63050;SDS011;49136;47.416;19.402;2023-08-06T06:52:51;688.67;;;629.30;;
63050;SDS011;49136;47.416;19.402;2023-08-06T06:55:17;711.65;;;650.63;;
63050;SDS011;49136;47.416;19.402;2023-08-06T06:57:42;685.13;;;625.97;;
63050;SDS011;49136;47.416;19.402;2023-08-06T07:00:07;704.63;;;642.17;;
63050;SDS011;49136;47.416;19.402;2023-08-06T07:02:33;721.10;;;658.58;;
63050;SDS011;49136;47.416;19.402;2023-08-06T07:04:59;720.67;;;655.58;;
63050;SDS011;49136;47.416;19.402;2023-08-06T07:07:24;659.80;;;600.95;;
63050;SDS011;49136;47.416;19.402;2023-08-06T07:09:49;712.55;;;646.75;;
63050;SDS011;49136;47.416;19.402;2023-08-06T07:12:15;676.75;;;613.40;;
63050;SDS011;49136;47.416;19.402;2023-08-06T07:14:40;629.63;;;572.60;;
63050;SDS011;49136;47.416;19.402;2023-08-06T07:17:06;656.25;;;596.53;;
63050;SDS011;49136;47.416;19.402;2023-08-06T07:19:31;680.85;;;619.30;;
63050;SDS011;49136;47.416;19.402;2023-08-06T07:21:56;716.22;;;649.13;;
63050;SDS011;49136;47.416;19.402;2023-08-06T07:24:22;648.05;;;591.63;;
63050;SDS011;49136;47.416;19.402;2023-08-06T07:26:47;650.97;;;593.60;;
63050;SDS011;49136;47.416;19.402;2023-08-06T07:29:13;646.63;;;591.22;;
63050;SDS011;49136;47.416;19.402;2023-08-06T07:31:44;684.53;;;622.85;;
63050;SDS011;49136;47.416;19.402;2023-08-06T07:34:10;701.00;;;638.95;;
63050;SDS011;49136;47.416;19.402;2023-08-06T07:36:35;680.72;;;616.90;;
63050;SDS011;49136;47.416;19.402;2023-08-06T07:39:01;628.17;;;574.55;;
63050;SDS011;49136;47.416;19.402;2023-08-06T07:41:26;677.10;;;618.50;;
63050;SDS011;49136;47.416;19.402;2023-08-06T07:43:52;715.28;;;649.55;;
63050;SDS011;49136;47.416;19.402;2023-08-06T07:46:17;752.55;;;681.47;;
63050;SDS011;49136;47.416;19.402;2023-08-06T07:48:43;652.42;;;596.42;;
63050;SDS011;49136;47.416;19.402;2023-08-06T07:51:08;694.15;;;635.65;;
63050;SDS011;49136;47.416;19.402;2023-08-06T07:53:34;705.58;;;643.33;;
63050;SDS011;49136;47.416;19.402;2023-08-06T07:55:59;655.45;;;598.95;;
63050;SDS011;49136;47.416;19.402;2023-08-06T07:58:27;677.53;;;620.67;;
63050;SDS011;49136;47.416;19.402;2023-08-06T08:00:54;688.50;;;629.50;;
63050;SDS011;49136;47.416;19.402;2023-08-06T08:03:19;673.08;;;614.97;;
63050;SDS011;49136;47.416;19.402;2023-08-06T08:05:45;695.25;;;632.55;;
63050;SDS011;49136;47.416;19.402;2023-08-06T08:08:11;657.08;;;598.45;;
63050;SDS011;49136;47.416;19.402;2023-08-06T08:10:36;712.75;;;644.78;;
63050;SDS011;49136;47.416;19.402;2023-08-06T08:13:03;660.55;;;601.80;;
63050;SDS011;49136;47.416;19.402;2023-08-06T08:15:30;701.03;;;637.72;;
63050;SDS011;49136;47.416;19.402;2023-08-06T08:17:57;683.80;;;623.55;;
63050;SDS011;49136;47.416;19.402;2023-08-06T08:20:23;734.00;;;665.03;;
63050;SDS011;49136;47.416;19.402;2023-08-06T08:22:49;645.13;;;589.05;;
63050;SDS011;49136;47.416;19.402;2023-08-06T08:25:15;686.63;;;624.38;;
63050;SDS011;49136;47.416;19.402;2023-08-06T08:27:44;675.63;;;616.55;;
63050;SDS011;49136;47.416;19.402;2023-08-06T08:30:09;629.90;;;574.22;;
63050;SDS011;49136;47.416;19.402;2023-08-06T08:32:35;631.60;;;576.35;;
63050;SDS011;49136;47.416;19.402;2023-08-06T08:35:01;639.47;;;583.30;;
63050;SDS011;49136;47.416;19.402;2023-08-06T08:37:27;638.95;;;582.42;;
63050;SDS011;49136;47.416;19.402;2023-08-06T08:39:53;690.40;;;627.13;;
63050;SDS011;49136;47.416;19.402;2023-08-06T08:42:18;662.22;;;603.53;;
63050;SDS011;49136;47.416;19.402;2023-08-06T08:44:44;621.95;;;567.30;;
63050;SDS011;49136;47.416;19.402;2023-08-06T08:47:10;633.33;;;578.45;;
63050;SDS011;49136;47.416;19.402;2023-08-06T08:49:36;664.20;;;603.97;;
63050;SDS011;49136;47.416;19.402;2023-08-06T08:52:03;636.45;;;579.88;;
63050;SDS011;49136;47.416;19.402;2023-08-06T08:54:33;620.65;;;565.63;;
63050;SDS011;49136;47.416;19.402;2023-08-06T08:57:00;593.50;;;540.53;;
63050;SDS011;49136;47.416;19.402;2023-08-06T08:59:25;651.97;;;595.25;;
63050;SDS011;49136;47.416;19.402;2023-08-06T09:01:51;663.13;;;604.88;;
63050;SDS011;49136;47.416;19.402;2023-08-06T09:04:18;718.92;;;646.85;;
63050;SDS011;49136;47.416;19.402;2023-08-06T09:06:49;690.67;;;628.00;;
63050;SDS011;49136;47.416;19.402;2023-08-06T09:09:25;655.92;;;597.88;;
63050;SDS011;49136;47.416;19.402;2023-08-06T09:11:53;697.88;;;636.58;;
63050;SDS011;49136;47.416;19.402;2023-08-06T09:14:24;705.05;;;642.70;;
63050;SDS011;49136;47.416;19.402;2023-08-06T09:16:50;744.90;;;677.30;;
63050;SDS011;49136;47.416;19.402;2023-08-06T09:19:16;710.50;;;646.20;;
63050;SDS011;49136;47.416;19.402;2023-08-06T09:21:42;723.80;;;657.58;;
63050;SDS011;49136;47.416;19.402;2023-08-06T09:26:34;735.35;;;668.85;;
63050;SDS011;49136;47.416;19.402;2023-08-06T09:29:01;846.85;;;760.40;;
63050;SDS011;49136;47.416;19.402;2023-08-06T09:31:32;693.30;;;630.00;;
63050;SDS011;49136;47.416;19.402;2023-08-06T09:34:20;682.85;;;622.35;;
63050;SDS011;49136;47.416;19.402;2023-08-06T09:36:50;807.10;;;720.78;;
63050;SDS011;49136;47.416;19.402;2023-08-06T09:39:18;657.85;;;598.85;;
63050;SDS011;49136;47.416;19.402;2023-08-06T09:41:44;914.13;;;728.78;;
63050;SDS011;49136;47.416;19.402;2023-08-06T09:44:20;732.90;;;666.35;;
63050;SDS011;49136;47.416;19.402;2023-08-06T09:46:50;675.17;;;613.97;;
63050;SDS011;49136;47.416;19.402;2023-08-06T09:49:25;685.58;;;623.75;;
63050;SDS011;49136;47.416;19.402;2023-08-06T09:51:52;744.15;;;674.58;;
63050;SDS011;49136;47.416;19.402;2023-08-06T09:54:21;699.38;;;637.30;;
63050;SDS011;49136;47.416;19.402;2023-08-06T09:56:49;670.78;;;610.55;;
63050;SDS011;49136;47.416;19.402;2023-08-06T09:59:17;738.60;;;666.90;;
63050;SDS011;49136;47.416;19.402;2023-08-06T10:01:43;680.92;;;620.40;;
63050;SDS011;49136;47.416;19.402;2023-08-06T10:04:13;637.25;;;581.17;;
63050;SDS011;49136;47.416;19.402;2023-08-06T10:06:41;695.88;;;633.28;;
63050;SDS011;49136;47.416;19.402;2023-08-06T10:09:09;721.40;;;657.97;;
63050;SDS011;49136;47.416;19.402;2023-08-06T10:11:36;703.08;;;640.08;;
63050;SDS011;49136;47.416;19.402;2023-08-06T10:14:06;701.60;;;638.80;;
63050;SDS011;49136;47.416;19.402;2023-08-06T10:16:35;697.20;;;635.65;;
63050;SDS011;49136;47.416;19.402;2023-08-06T10:19:03;647.67;;;591.92;;
63050;SDS011;49136;47.416;19.402;2023-08-06T10:21:33;685.90;;;625.40;;
63050;SDS011;49136;47.416;19.402;2023-08-06T10:23:59;673.08;;;612.55;;
63050;SDS011;49136;47.416;19.402;2023-08-06T10:26:26;710.65;;;647.10;;
63050;SDS011;49136;47.416;19.402;2023-08-06T10:28:52;741.85;;;675.13;;
63050;SDS011;49136;47.416;19.402;2023-08-06T10:31:20;720.45;;;655.58;;
63050;SDS011;49136;47.416;19.402;2023-08-06T10:34:05;692.78;;;630.17;;
63050;SDS011;49136;47.416;19.402;2023-08-06T10:36:32;717.60;;;651.55;;
63050;SDS011;49136;47.416;19.402;2023-08-06T10:38:58;697.17;;;632.88;;
63050;SDS011;49136;47.416;19.402;2023-08-06T10:41:29;726.60;;;661.20;;
63050;SDS011;49136;47.416;19.402;2023-08-06T10:44:05;827.72;;;739.92;;
63050;SDS011;49136;47.416;19.402;2023-08-06T10:46:34;724.08;;;657.42;;
63050;SDS011;49136;47.416;19.402;2023-08-06T10:49:01;807.28;;;720.45;;
63050;SDS011;49136;47.416;19.402;2023-08-06T10:51:28;831.00;;;736.15;;
63050;SDS011;49136;47.416;19.402;2023-08-06T10:53:54;703.88;;;632.75;;
63050;SDS011;49136;47.416;19.402;2023-08-06T10:56:21;718.45;;;654.20;;
63050;SDS011;49136;47.416;19.402;2023-08-06T10:58:49;673.67;;;611.15;;
63050;SDS011;49136;47.416;19.402;2023-08-06T11:01:17;711.90;;;648.53;;
63050;SDS011;49136;47.416;19.402;2023-08-06T11:03:44;742.28;;;669.20;;
63050;SDS011;49136;47.416;19.402;2023-08-06T11:06:10;704.83;;;640.08;;
63050;SDS011;49136;47.416;19.402;2023-08-06T11:08:36;700.90;;;636.10;;
63050;SDS011;49136;47.416;19.402;2023-08-06T11:11:12;743.35;;;676.95;;
63050;SDS011;49136;47.416;19.402;2023-08-06T11:13:43;648.35;;;592.58;;
63050;SDS011;49136;47.416;19.402;2023-08-06T11:16:11;638.55;;;582.85;;
63050;SDS011;49136;47.416;19.402;2023-08-06T11:18:37;683.70;;;623.28;;
63050;SDS011;49136;47.416;19.402;2023-08-06T11:21:03;686.20;;;626.33;;
63050;SDS011;49136;47.416;19.402;2023-08-06T11:23:28;680.78;;;620.25;;
63050;SDS011;49136;47.416;19.402;2023-08-06T11:25:54;661.17;;;603.92;;
63050;SDS011;49136;47.416;19.402;2023-08-06T11:28:21;681.53;;;620.65;;
63050;SDS011;49136;47.416;19.402;2023-08-06T11:30:47;689.45;;;629.17;;
63050;SDS011;49136;47.416;19.402;2023-08-06T11:33:13;699.38;;;637.47;;
63050;SDS011;49136;47.416;19.402;2023-08-06T11:35:38;730.15;;;663.08;;
63050;SDS011;49136;47.416;19.402;2023-08-06T11:38:05;679.33;;;620.60;;
63050;SDS011;49136;47.416;19.402;2023-08-06T11:40:31;684.67;;;623.70;;
63050;SDS011;49136;47.416;19.402;2023-08-06T11:42:57;735.15;;;669.85;;
63050;SDS011;49136;47.416;19.402;2023-08-06T11:45:26;735.63;;;666.97;;
63050;SDS011;49136;47.416;19.402;2023-08-06T11:47:52;701.28;;;639.45;;
63050;SDS011;49136;47.416;19.402;2023-08-06T11:50:27;655.88;;;597.03;;
63050;SDS011;49136;47.416;19.402;2023-08-06T11:53:11;693.63;;;633.58;;
63050;SDS011;49136;47.416;19.402;2023-08-06T11:55:39;689.90;;;630.03;;
63050;SDS011;49136;47.416;19.402;2023-08-06T11:58:05;668.90;;;608.38;;
63050;SDS011;49136;47.416;19.402;2023-08-06T12:00:30;747.22;;;675.90;;
63050;SDS011;49136;47.416;19.402;2023-08-06T12:02:56;707.78;;;642.92;;
63050;SDS011;49136;47.416;19.402;2023-08-06T12:05:28;685.63;;;625.97;;
63050;SDS011;49136;47.416;19.402;2023-08-06T12:07:55;662.22;;;604.95;;
63050;SDS011;49136;47.416;19.402;2023-08-06T12:10:22;615.00;;;560.92;;
63050;SDS011;49136;47.416;19.402;2023-08-06T12:12:49;648.17;;;591.67;;
63050;SDS011;49136;47.416;19.402;2023-08-06T12:15:15;617.63;;;564.00;;
63050;SDS011;49136;47.416;19.402;2023-08-06T12:17:42;618.03;;;563.97;;
63050;SDS011;49136;47.416;19.402;2023-08-06T12:20:07;609.05;;;555.67;;
63050;SDS011;49136;47.416;19.402;2023-08-06T12:22:34;607.15;;;554.42;;
63050;SDS011;49136;47.416;19.402;2023-08-06T12:25:00;609.15;;;555.85;;
63050;SDS011;49136;47.416;19.402;2023-08-06T12:27:28;622.60;;;566.78;;
63050;SDS011;49136;47.416;19.402;2023-08-06T12:29:54;781.60;;;671.33;;
63050;SDS011;49136;47.416;19.402;2023-08-06T12:32:19;596.88;;;545.22;;
63050;SDS011;49136;47.416;19.402;2023-08-06T12:34:45;592.65;;;540.13;;
63050;SDS011;49136;47.416;19.402;2023-08-06T12:37:10;604.83;;;550.67;;
63050;SDS011;49136;47.416;19.402;2023-08-06T12:39:36;593.50;;;542.22;;
63050;SDS011;49136;47.416;19.402;2023-08-06T12:42:03;594.70;;;543.90;;
63050;SDS011;49136;47.416;19.402;2023-08-06T12:44:29;575.70;;;524.72;;
63050;SDS011;49136;47.416;19.402;2023-08-06T12:46:55;567.05;;;518.08;;
63050;SDS011;49136;47.416;19.402;2023-08-06T12:49:20;591.60;;;540.10;;
63050;SDS011;49136;47.416;19.402;2023-08-06T12:51:46;585.22;;;530.30;;
63050;SDS011;49136;47.416;19.402;2023-08-06T12:54:12;557.75;;;509.10;;
63050;SDS011;49136;47.416;19.402;2023-08-06T12:56:38;542.42;;;495.38;;
63050;SDS011;49136;47.416;19.402;2023-08-06T12:59:03;571.92;;;522.45;;
63050;SDS011;49136;47.416;19.402;2023-08-06T13:01:29;637.85;;;579.20;;
63050;SDS011;49136;47.416;19.402;2023-08-06T13:03:55;512.83;;;470.08;;
63050;SDS011;49136;47.416;19.402;2023-08-06T13:06:20;621.55;;;557.95;;
63050;SDS011;49136;47.416;19.402;2023-08-06T13:08:46;511.65;;;467.23;;
63050;SDS011;49136;47.416;19.402;2023-08-06T13:11:12;608.35;;;553.85;;
63050;SDS011;49136;47.416;19.402;2023-08-06T13:13:38;558.42;;;510.50;;
63050;SDS011;49136;47.416;19.402;2023-08-06T13:16:04;535.40;;;485.02;;
63050;SDS011;49136;47.416;19.402;2023-08-06T13:18:30;568.97;;;516.75;;
63050;SDS011;49136;47.416;19.402;2023-08-06T13:20:56;498.67;;;454.10;;
63050;SDS011;49136;47.416;19.402;2023-08-06T13:23:21;608.80;;;551.40;;
63050;SDS011;49136;47.416;19.402;2023-08-06T13:25:47;477.45;;;436.23;;
63050;SDS011;49136;47.416;19.402;2023-08-06T13:28:13;543.03;;;494.98;;
63050;SDS011;49136;47.416;19.402;2023-08-06T13:30:39;492.48;;;447.52;;
63050;SDS011;49136;47.416;19.402;2023-08-06T13:33:08;528.28;;;480.70;;
63050;SDS011;49136;47.416;19.402;2023-08-06T13:35:34;693.33;;;625.45;;
63050;SDS011;49136;47.416;19.402;2023-08-06T13:38:00;527.25;;;481.38;;
63050;SDS011;49136;47.416;19.402;2023-08-06T13:40:29;451.63;;;413.85;;
63050;SDS011;49136;47.416;19.402;2023-08-06T13:42:58;593.65;;;537.83;;
63050;SDS011;49136;47.416;19.402;2023-08-06T13:45:24;531.70;;;484.05;;
63050;SDS011;49136;47.416;19.402;2023-08-06T13:47:50;431.63;;;396.35;;
63050;SDS011;49136;47.416;19.402;2023-08-06T13:50:16;445.38;;;408.35;;
63050;SDS011;49136;47.416;19.402;2023-08-06T13:52:42;538.15;;;490.02;;
63050;SDS011;49136;47.416;19.402;2023-08-06T13:55:08;445.50;;;409.73;;
63050;SDS011;49136;47.416;19.402;2023-08-06T13:57:34;413.50;;;380.30;;
63050;SDS011;49136;47.416;19.402;2023-08-06T14:00:01;555.17;;;504.10;;
63050;SDS011;49136;47.416;19.402;2023-08-06T14:02:27;396.17;;;362.35;;